Terminal Aerodrome Forecast
Issued by NWS Charleston, WV

Current Version | Previous Version | Text Only | Print | Product List | Glossary Off
Versions: 1 2 3 4 5 6 7 8 9 10 11 12 13 14 15 16 17 18 19 20 21 22 23 24 25

000
FTUS41 KRLX 210308 AAA
TAFEKN
TAF AMD
KEKN 210308Z 2103/2124 26011KT P6SM OVC025
     FM210800 23004KT P6SM -RA OVC015
     FM212000 22004KT P6SM BKN035=

USA.gov is the U.S. government's official web portal to all federal, state and local government web resources and services.